Terminal Aerodrome Forecast
Issued by NWS Amarillo, TX

Current Version | Previous Version | Text Only | Print | Product List | Glossary On
Versions: 1 2 3 4 5 6 7 8 9 10 11
000
FTUS44 KAMA 271100
TAFDHT
TAF
KDHT 271127Z 2712/2812 34009KT P6SM BKN300
     FM271900 VRB06KT P6SM SCT300
     FM280400 25006KT P6SM SKC=

USA.gov is the U.S. government's official web portal to all federal, state and local government web resources and services.